createdAt,value
2018-05-24T00:03:10.714Z,17.70
2018-05-24T00:08:05.060Z,17.80
2018-05-24T00:12:59.442Z,18.00
2018-05-24T00:17:53.936Z,18.20
2018-05-24T00:22:48.414Z,18.30
2018-05-24T00:27:42.751Z,18.40
2018-05-24T00:32:37.118Z,18.40
2018-05-24T00:37:31.534Z,18.40
2018-05-24T00:42:25.876Z,18.50
2018-05-24T00:47:20.392Z,18.40
2018-05-24T00:52:14.749Z,18.30
2018-05-24T00:57:09.264Z,18.10
2018-05-24T01:02:03.605Z,18.00
2018-05-24T01:06:59.081Z,17.70
2018-05-24T01:11:53.435Z,17.70
2018-05-24T01:16:48.538Z,17.60
2018-05-24T01:21:42.910Z,17.60
2018-05-24T01:26:37.026Z,17.70
2018-05-24T01:31:31.516Z,17.80
2018-05-24T01:36:43.098Z,17.70
2018-05-24T01:41:37.452Z,17.70
2018-05-24T01:46:31.822Z,17.60
2018-05-24T01:51:26.158Z,17.60
2018-05-24T01:56:20.517Z,17.50
2018-05-24T02:01:14.894Z,17.40
2018-05-24T02:06:09.996Z,17.30
2018-05-24T02:11:04.374Z,17.30
2018-05-24T02:15:58.720Z,17.20
2018-05-24T02:20:54.056Z,17.10
2018-05-24T02:25:48.568Z,17.10
2018-05-24T02:30:42.947Z,17.00
2018-05-24T02:35:38.082Z,17.10
2018-05-24T02:40:32.529Z,17.10
2018-05-24T02:45:26.867Z,17.20
2018-05-24T02:50:22.158Z,17.30
2018-05-24T02:55:16.510Z,17.30
2018-05-24T03:00:12.038Z,17.50
2018-05-24T03:05:07.159Z,17.60
2018-05-24T03:10:02.308Z,17.60
2018-05-24T03:14:56.660Z,17.60
2018-05-24T03:19:51.079Z,17.60
2018-05-24T03:24:46.203Z,17.50
2018-05-24T03:29:41.313Z,17.50
2018-05-24T03:34:36.420Z,17.40
2018-05-24T03:39:30.776Z,17.30
2018-05-24T03:44:25.354Z,17.20
2018-05-24T03:49:20.220Z,17.10
2018-05-24T03:54:14.601Z,17.10
2018-05-24T04:15:08.190Z,16.90
2018-05-24T04:20:02.534Z,16.90
2018-05-24T04:24:56.893Z,16.80
2018-05-24T04:29:51.250Z,16.70
2018-05-24T04:34:47.385Z,16.60
2018-05-24T04:39:41.715Z,16.60
2018-05-24T04:44:36.896Z,16.60
2018-05-24T04:49:31.297Z,16.50
2018-05-24T04:54:26.242Z,16.60
2018-05-24T04:59:21.361Z,16.70
2018-05-24T05:04:15.878Z,16.70
2018-05-24T05:09:10.981Z,17.10
2018-05-24T05:14:05.989Z,17.10
2018-05-24T05:19:00.421Z,17.30
2018-05-24T05:23:55.702Z,17.60
2018-05-24T05:28:50.053Z,17.60
2018-05-24T05:33:45.180Z,18.00
2018-05-24T05:38:39.521Z,17.90
2018-05-24T05:43:33.892Z,18.20
2018-05-24T05:48:28.130Z,18.50
2018-05-24T05:53:22.818Z,18.80
2018-05-24T05:58:17.340Z,19.10
2018-05-24T06:03:13.804Z,19.50
2018-05-24T06:08:08.929Z,19.70
2018-05-24T06:13:03.400Z,20.00
2018-05-24T06:17:57.927Z,20.10
2018-05-24T06:22:52.274Z,20.20
2018-05-24T06:27:47.428Z,20.60
2018-05-24T06:32:41.964Z,20.50
2018-05-24T06:37:36.324Z,20.70
2018-05-24T06:42:30.683Z,20.80
2018-05-24T06:47:25.146Z,20.80
2018-05-24T06:52:19.490Z,21.10
2018-05-24T06:57:13.849Z,21.10
2018-05-24T07:02:08.430Z,21.00
2018-05-24T07:07:02.906Z,21.10
2018-05-24T07:11:58.163Z,21.50
2018-05-24T07:16:52.816Z,21.50
2018-05-24T07:21:47.158Z,22.10
2018-05-24T07:26:42.274Z,23.10
2018-05-24T07:31:37.703Z,24.00
2018-05-24T07:36:32.831Z,25.50
2018-05-24T07:41:29.732Z,27.10
2018-05-24T07:46:24.844Z,27.10
2018-05-24T07:51:19.463Z,27.90
2018-05-24T07:56:15.223Z,27.50
2018-05-24T08:01:09.587Z,27.50
2018-05-24T08:06:04.074Z,27.20
2018-05-24T08:10:58.426Z,27.00
2018-05-24T08:15:52.830Z,27.00
2018-05-24T08:20:47.972Z,27.60
2018-05-24T08:25:42.676Z,27.60
2018-05-24T08:30:37.042Z,28.90
2018-05-24T08:35:32.494Z,35.60
2018-05-24T08:40:27.508Z,35.50
2018-05-24T08:45:22.157Z,40.30
2018-05-24T08:50:16.777Z,45.30
2018-05-24T08:55:11.411Z,46.50
2018-05-24T09:00:06.806Z,50.20
2018-05-24T09:05:01.694Z,50.10
2018-05-24T09:09:56.500Z,49.70
2018-05-24T09:14:51.123Z,49.90
2018-05-24T09:19:45.765Z,51.00
2018-05-24T09:24:40.393Z,53.30
2018-05-24T09:29:35.791Z,53.20
2018-05-24T09:34:30.600Z,53.10
2018-05-24T09:39:25.231Z,50.40
2018-05-24T09:44:20.635Z,43.30
2018-05-24T09:49:15.499Z,43.30
2018-05-24T09:54:10.139Z,39.90
2018-05-24T09:59:04.797Z,36.40
2018-05-24T10:04:00.206Z,32.40
2018-05-24T10:08:54.841Z,32.20
2018-05-24T10:13:49.644Z,31.20
2018-05-24T10:18:45.039Z,29.80
2018-05-24T10:23:39.860Z,29.70
2018-05-24T10:28:34.762Z,29.50
2018-05-24T10:33:29.517Z,29.40
2018-05-24T10:38:24.912Z,28.40
2018-05-24T10:43:19.663Z,28.30
2018-05-24T10:48:14.026Z,27.80
2018-05-24T10:53:09.385Z,27.80
2018-05-24T10:58:03.754Z,27.70
2018-05-24T11:02:58.209Z,27.40
2018-05-24T11:07:52.738Z,27.10
2018-05-24T11:12:47.848Z,26.60
2018-05-24T11:17:42.190Z,26.60
2018-05-24T11:22:36.582Z,26.30
2018-05-24T11:27:31.721Z,26.00
2018-05-24T11:32:26.148Z,26.00
2018-05-24T11:37:20.543Z,26.10
2018-05-24T11:42:15.925Z,25.90
2018-05-24T11:47:11.072Z,25.70
2018-05-24T11:52:05.515Z,25.70
2018-05-24T11:57:00.099Z,25.50
2018-05-24T12:01:54.551Z,25.30
2018-05-24T12:06:48.990Z,25.10
2018-05-24T12:11:43.412Z,24.90
2018-05-24T12:16:37.760Z,24.90
2018-05-24T12:21:32.136Z,24.70
2018-05-24T12:26:26.623Z,24.70
2018-05-24T12:31:21.073Z,25.00
2018-05-24T12:36:16.308Z,25.40
2018-05-24T12:41:11.471Z,25.40
2018-05-24T12:46:05.824Z,25.40
2018-05-24T12:51:00.278Z,25.50
2018-05-24T12:55:54.810Z,25.80
2018-05-24T13:00:49.173Z,26.10
2018-05-24T13:05:43.526Z,26.40
2018-05-24T13:10:37.878Z,26.20
2018-05-24T13:15:32.290Z,26.30
2018-05-24T13:20:26.669Z,26.20
2018-05-24T13:25:21.018Z,26.10
2018-05-24T13:30:15.376Z,26.10
2018-05-24T13:35:09.757Z,26.20
2018-05-24T13:40:04.863Z,26.60
2018-05-24T13:44:59.425Z,26.60
2018-05-24T13:49:53.769Z,26.50
2018-05-24T13:54:48.142Z,25.90
2018-05-24T13:59:42.284Z,25.90
2018-05-24T14:04:37.385Z,26.30
2018-05-24T14:09:31.790Z,26.20
2018-05-24T14:14:26.152Z,26.20
2018-05-24T14:19:20.500Z,26.00
2018-05-24T14:24:15.078Z,25.80
2018-05-24T14:29:09.417Z,25.50
2018-05-24T14:34:03.875Z,25.30
2018-05-24T14:38:58.230Z,25.20
2018-05-24T14:43:53.534Z,24.50
2018-05-24T14:48:47.904Z,24.50
2018-05-24T14:53:42.271Z,24.30
2018-05-24T14:58:36.847Z,24.40
2018-05-24T15:03:31.204Z,24.40
2018-05-24T15:08:25.561Z,24.20
2018-05-24T15:13:37.825Z,23.80
2018-05-24T15:18:32.484Z,23.80
2018-05-24T15:23:27.415Z,23.90
2018-05-24T15:28:22.544Z,24.40
2018-05-24T15:33:17.713Z,24.60
2018-05-24T15:38:12.196Z,24.60
2018-05-24T15:43:06.553Z,24.50
2018-05-24T15:48:00.922Z,24.40
2018-05-24T15:52:55.285Z,24.40
2018-05-24T15:57:49.660Z,24.30
2018-05-24T16:02:44.160Z,24.30
2018-05-24T16:07:38.650Z,24.40
2018-05-24T16:12:33.223Z,24.30
2018-05-24T16:17:28.522Z,24.00
2018-05-24T16:22:23.113Z,24.00
2018-05-24T16:27:17.474Z,23.80
2018-05-24T16:32:12.091Z,23.80
2018-05-24T16:37:06.219Z,23.70
2018-05-24T16:42:00.629Z,23.60
2018-05-24T16:46:55.113Z,23.70
2018-05-24T16:51:49.451Z,23.80
2018-05-24T16:56:44.020Z,23.80
2018-05-24T17:01:38.475Z,23.80
2018-05-24T17:06:33.421Z,23.60
2018-05-24T17:11:28.152Z,23.60
2018-05-24T17:16:22.493Z,23.60
2018-05-24T17:21:16.854Z,23.60
2018-05-24T17:26:11.209Z,23.40
2018-05-24T17:31:06.326Z,23.00
2018-05-24T17:36:01.199Z,23.00
2018-05-24T17:57:23.762Z,22.20
2018-05-24T18:02:23.792Z,22.20
2018-05-24T18:12:40.562Z,22.00
2018-05-24T18:17:35.007Z,22.00
2018-05-24T18:22:29.574Z,21.90
2018-05-24T18:32:47.318Z,21.80
2018-05-24T18:37:41.717Z,21.60
2018-05-24T18:42:36.254Z,21.60
2018-05-24T18:47:31.492Z,21.40
2018-05-24T18:52:26.966Z,21.30
2018-05-24T19:13:29.037Z,20.90
2018-05-24T19:18:33.526Z,20.90
2018-05-24T19:23:27.926Z,20.70
2018-05-24T19:28:22.275Z,20.50
2018-05-24T19:33:17.442Z,20.20
2018-05-24T19:38:11.813Z,20.20
2018-05-24T19:43:06.935Z,20.00
2018-05-24T19:48:02.063Z,19.90
2018-05-24T19:52:56.953Z,19.80
2018-05-24T19:57:53.530Z,19.70
2018-05-24T20:02:48.415Z,19.70
2018-05-24T20:07:42.836Z,19.60
2018-05-24T20:12:38.881Z,19.60
2018-05-24T20:17:33.633Z,19.60
2018-05-24T20:22:28.183Z,19.60
2018-05-24T20:27:23.311Z,19.40
2018-05-24T20:32:18.778Z,19.30
2018-05-24T20:37:13.126Z,19.30
2018-05-24T20:42:07.588Z,19.30
2018-05-24T20:47:01.958Z,19.10
2018-05-24T20:51:57.216Z,19.00
2018-05-24T20:56:51.923Z,19.00
2018-05-24T21:01:46.684Z,18.90
2018-05-24T21:06:41.642Z,18.80
2018-05-24T21:11:36.289Z,18.80
2018-05-24T21:16:31.169Z,18.70
2018-05-24T21:21:26.125Z,18.70
2018-05-24T21:26:21.736Z,18.50
2018-05-24T21:31:16.604Z,18.50
2018-05-24T21:36:12.569Z,18.50
2018-05-24T21:41:07.393Z,18.50
2018-05-24T21:46:03.621Z,18.50
2018-05-24T21:50:59.278Z,18.50
2018-05-24T21:55:53.856Z,18.40
2018-05-24T22:00:51.216Z,18.30
2018-05-24T22:05:45.599Z,18.20
2018-05-24T22:10:39.973Z,18.10
2018-05-24T22:15:34.489Z,18.10
2018-05-24T22:20:29.290Z,18.00
2018-05-24T22:25:23.642Z,18.00
2018-05-24T22:30:18.800Z,17.90
2018-05-24T22:35:13.208Z,17.90
2018-05-24T22:40:07.562Z,17.90
2018-05-24T22:45:02.889Z,17.90
2018-05-24T22:49:57.998Z,17.90
2018-05-24T22:54:52.693Z,17.80
2018-05-24T22:59:47.207Z,17.80
2018-05-24T23:04:41.754Z,17.80
2018-05-24T23:09:36.132Z,17.80
2018-05-24T23:14:31.250Z,17.70
2018-05-24T23:19:26.546Z,17.60
2018-05-24T23:24:20.934Z,17.60
2018-05-24T23:29:15.397Z,17.50
2018-05-24T23:34:09.760Z,17.50
2018-05-24T23:39:03.878Z,17.40
2018-05-24T23:43:59.026Z,17.30
2018-05-24T23:48:54.311Z,17.40
2018-05-24T23:53:49.595Z,17.30
2018-05-24T23:58:44.252Z,17.30
